sensor_id;sensor_type;location;lat;lon;timestamp;pressure;altitude;pressure_sealevel;temperature;humidity
7802;BME280;3945;48.952;9.506;2022-10-31T00:00:29;98427.59;;;11.90;93.96
7802;BME280;3945;48.952;9.506;2022-10-31T00:02:55;98426.56;;;11.91;93.36
7802;BME280;3945;48.952;9.506;2022-10-31T00:05:22;98431.22;;;11.84;93.60
7802;BME280;3945;48.952;9.506;2022-10-31T00:07:52;98429.81;;;11.82;93.95
7802;BME280;3945;48.952;9.506;2022-10-31T00:10:18;98437.59;;;11.83;93.51
7802;BME280;3945;48.952;9.506;2022-10-31T00:12:45;98426.13;;;11.83;94.12
7802;BME280;3945;48.952;9.506;2022-10-31T00:15:11;98433.56;;;11.81;93.89
7802;BME280;3945;48.952;9.506;2022-10-31T00:17:37;98429.06;;;11.81;94.11
7802;BME280;3945;48.952;9.506;2022-10-31T00:20:04;98429.06;;;11.81;94.02
7802;BME280;3945;48.952;9.506;2022-10-31T00:22:31;98431.44;;;11.83;94.19
7802;BME280;3945;48.952;9.506;2022-10-31T00:24:58;98429.81;;;11.82;94.48
7802;BME280;3945;48.952;9.506;2022-10-31T00:27:25;98428.78;;;11.83;94.53
7802;BME280;3945;48.952;9.506;2022-10-31T00:29:51;98430.91;;;11.81;93.94
7802;BME280;3945;48.952;9.506;2022-10-31T00:32:17;98419.66;;;11.79;94.43
7802;BME280;3945;48.952;9.506;2022-10-31T00:34:44;98425.22;;;11.77;94.49
7802;BME280;3945;48.952;9.506;2022-10-31T00:37:10;98420.94;;;11.76;94.63
7802;BME280;3945;48.952;9.506;2022-10-31T00:39:36;98423.59;;;11.76;94.26
7802;BME280;3945;48.952;9.506;2022-10-31T00:42:04;98426.50;;;11.74;94.96
7802;BME280;3945;48.952;9.506;2022-10-31T00:44:31;98425.53;;;11.69;94.71
7802;BME280;3945;48.952;9.506;2022-10-31T00:46:57;98429.25;;;11.68;94.71
7802;BME280;3945;48.952;9.506;2022-10-31T00:49:23;98427.66;;;11.67;94.78
7802;BME280;3945;48.952;9.506;2022-10-31T00:51:50;98431.38;;;11.66;94.95
7802;BME280;3945;48.952;9.506;2022-10-31T00:54:16;98428.13;;;11.64;95.03
7802;BME280;3945;48.952;9.506;2022-10-31T00:56:42;98430.19;;;11.62;94.82
7802;BME280;3945;48.952;9.506;2022-10-31T00:59:10;98430.44;;;11.60;94.48
7802;BME280;3945;48.952;9.506;2022-10-31T01:01:36;98429.28;;;11.56;94.87
7802;BME280;3945;48.952;9.506;2022-10-31T01:04:03;98430.31;;;11.55;94.49
7802;BME280;3945;48.952;9.506;2022-10-31T01:06:29;98423.72;;;11.58;94.22
7802;BME280;3945;48.952;9.506;2022-10-31T01:08:56;98424.53;;;11.58;94.42
7802;BME280;3945;48.952;9.506;2022-10-31T01:11:22;98424.53;;;11.58;94.54
7802;BME280;3945;48.952;9.506;2022-10-31T01:13:50;98423.50;;;11.59;94.78
7802;BME280;3945;48.952;9.506;2022-10-31T01:16:19;98427.22;;;11.58;94.57
7802;BME280;3945;48.952;9.506;2022-10-31T01:18:46;98420.47;;;11.56;94.51
7802;BME280;3945;48.952;9.506;2022-10-31T01:21:14;98422.56;;;11.54;94.52
7802;BME280;3945;48.952;9.506;2022-10-31T01:23:40;98416.41;;;11.53;94.54
7802;BME280;3945;48.952;9.506;2022-10-31T01:26:08;98422.00;;;11.52;94.43
7802;BME280;3945;48.952;9.506;2022-10-31T01:28:35;98411.81;;;11.49;94.00
7802;BME280;3945;48.952;9.506;2022-10-31T01:31:03;98416.31;;;11.48;93.60
7802;BME280;3945;48.952;9.506;2022-10-31T01:33:32;98419.22;;;11.47;93.86
7802;BME280;3945;48.952;9.506;2022-10-31T01:35:58;98413.31;;;11.45;93.90
7802;BME280;3945;48.952;9.506;2022-10-31T01:38:24;98420.97;;;11.41;93.66
7802;BME280;3945;48.952;9.506;2022-10-31T01:40:51;98420.06;;;11.35;93.20
7802;BME280;3945;48.952;9.506;2022-10-31T01:43:17;98411.97;;;11.30;93.41
7802;BME280;3945;48.952;9.506;2022-10-31T01:45:44;98405.94;;;11.23;92.99
7802;BME280;3945;48.952;9.506;2022-10-31T01:48:13;98410.44;;;11.11;92.94
7802;BME280;3945;48.952;9.506;2022-10-31T01:50:41;98406.03;;;11.05;92.88
7802;BME280;3945;48.952;9.506;2022-10-31T01:53:09;98406.53;;;11.02;93.03
7802;BME280;3945;48.952;9.506;2022-10-31T01:55:38;98401.06;;;10.97;93.07
7802;BME280;3945;48.952;9.506;2022-10-31T01:58:06;98403.63;;;10.92;92.76
7802;BME280;3945;48.952;9.506;2022-10-31T02:00:34;98408.56;;;10.88;92.85
7802;BME280;3945;48.952;9.506;2022-10-31T02:03:01;98409.06;;;10.85;92.83
7802;BME280;3945;48.952;9.506;2022-10-31T02:05:28;98411.72;;;10.85;93.23
7802;BME280;3945;48.952;9.506;2022-10-31T02:07:57;98409.88;;;10.86;92.96
7802;BME280;3945;48.952;9.506;2022-10-31T02:10:24;98414.50;;;10.90;92.97
7802;BME280;3945;48.952;9.506;2022-10-31T02:12:51;98420.84;;;10.89;93.15
7802;BME280;3945;48.952;9.506;2022-10-31T02:15:18;98408.34;;;10.90;93.09
7802;BME280;3945;48.952;9.506;2022-10-31T02:17:44;98414.72;;;10.89;93.32
7802;BME280;3945;48.952;9.506;2022-10-31T02:20:13;98414.72;;;10.89;93.61
7802;BME280;3945;48.952;9.506;2022-10-31T02:22:45;98410.19;;;10.89;93.55
7802;BME280;3945;48.952;9.506;2022-10-31T02:25:25;98411.38;;;10.93;93.86
7802;BME280;3945;48.952;9.506;2022-10-31T02:33:19;98397.59;;;10.96;94.09
7802;BME280;3945;48.952;9.506;2022-10-31T02:35:55;98397.59;;;10.96;94.31
7802;BME280;3945;48.952;9.506;2022-10-31T02:38:30;98401.66;;;10.99;94.12
7802;BME280;3945;48.952;9.506;2022-10-31T02:41:02;98404.91;;;11.01;94.45
7802;BME280;3945;48.952;9.506;2022-10-31T02:43:32;98407.78;;;11.00;93.88
7802;BME280;3945;48.952;9.506;2022-10-31T02:46:02;98406.16;;;10.99;93.67
7802;BME280;3945;48.952;9.506;2022-10-31T02:48:32;98408.81;;;10.99;93.45
7802;BME280;3945;48.952;9.506;2022-10-31T02:51:01;98403.50;;;10.99;93.48
7802;BME280;3945;48.952;9.506;2022-10-31T02:53:31;98406.06;;;10.93;93.22
7802;BME280;3945;48.952;9.506;2022-10-31T02:55:58;98412.06;;;10.89;93.55
7802;BME280;3945;48.952;9.506;2022-10-31T02:58:26;98406.63;;;10.84;93.28
7802;BME280;3945;48.952;9.506;2022-10-31T03:01:00;98402.56;;;10.81;93.43
7802;BME280;3945;48.952;9.506;2022-10-31T03:03:34;98405.91;;;10.77;93.38
7802;BME280;3945;48.952;9.506;2022-10-31T03:06:03;98404.75;;;10.73;93.29
7802;BME280;3945;48.952;9.506;2022-10-31T03:08:34;98401.75;;;10.69;93.28
7802;BME280;3945;48.952;9.506;2022-10-31T03:11:01;98403.38;;;10.70;93.42
7802;BME280;3945;48.952;9.506;2022-10-31T03:13:31;98407.06;;;10.69;93.06
7802;BME280;3945;48.952;9.506;2022-10-31T03:16:02;98411.78;;;10.67;93.21
7802;BME280;3945;48.952;9.506;2022-10-31T03:18:32;98406.72;;;10.66;93.26
7802;BME280;3945;48.952;9.506;2022-10-31T03:21:01;98399.78;;;10.65;93.41
7802;BME280;3945;48.952;9.506;2022-10-31T03:23:30;98406.72;;;10.66;93.24
7802;BME280;3945;48.952;9.506;2022-10-31T03:25:58;98401.97;;;10.68;93.28
7802;BME280;3945;48.952;9.506;2022-10-31T03:28:28;98399.66;;;10.71;93.35
7802;BME280;3945;48.952;9.506;2022-10-31T03:30:55;98407.44;;;10.73;93.48
7802;BME280;3945;48.952;9.506;2022-10-31T03:33:24;98403.13;;;10.72;93.44
7802;BME280;3945;48.952;9.506;2022-10-31T03:35:52;98414.59;;;10.72;93.52
7802;BME280;3945;48.952;9.506;2022-10-31T03:38:21;98407.06;;;10.69;93.58
7802;BME280;3945;48.952;9.506;2022-10-31T03:40:48;98410.75;;;10.68;93.77
7802;BME280;3945;48.952;9.506;2022-10-31T03:43:19;98406.72;;;10.66;93.65
7802;BME280;3945;48.952;9.506;2022-10-31T03:45:47;98399.88;;;10.58;93.22
7802;BME280;3945;48.952;9.506;2022-10-31T03:48:15;98408.53;;;10.53;93.23
7802;BME280;3945;48.952;9.506;2022-10-31T03:50:44;98411.06;;;10.48;92.94
7802;BME280;3945;48.952;9.506;2022-10-31T03:53:14;98414.75;;;10.47;92.76
7802;BME280;3945;48.952;9.506;2022-10-31T03:55:45;98409.09;;;10.44;93.27
7802;BME280;3945;48.952;9.506;2022-10-31T03:58:17;98404.44;;;10.39;93.12
7802;BME280;3945;48.952;9.506;2022-10-31T04:00:45;98408.03;;;10.33;93.02
7802;BME280;3945;48.952;9.506;2022-10-31T04:03:12;98409.16;;;10.26;93.27
7802;BME280;3945;48.952;9.506;2022-10-31T04:05:41;98396.53;;;10.21;93.68
7802;BME280;3945;48.952;9.506;2022-10-31T04:08:09;98408.81;;;10.22;93.73
7802;BME280;3945;48.952;9.506;2022-10-31T04:10:37;98401.88;;;10.21;93.87
7802;BME280;3945;48.952;9.506;2022-10-31T04:13:06;98394.69;;;10.22;94.04
7802;BME280;3945;48.952;9.506;2022-10-31T04:15:34;98400.59;;;10.24;94.24
7802;BME280;3945;48.952;9.506;2022-10-31T04:18:01;98397.69;;;10.25;94.35
7802;BME280;3945;48.952;9.506;2022-10-31T04:20:30;98391.72;;;10.30;94.34
7802;BME280;3945;48.952;9.506;2022-10-31T04:22:56;98396.34;;;10.34;94.21
7802;BME280;3945;48.952;9.506;2022-10-31T04:25:23;98389.41;;;10.33;94.03
7802;BME280;3945;48.952;9.506;2022-10-31T04:27:49;98385.13;;;10.32;94.19
7802;BME280;3945;48.952;9.506;2022-10-31T04:30:18;98394.72;;;10.33;94.24
7802;BME280;3945;48.952;9.506;2022-10-31T04:32:45;98383.50;;;10.31;94.05
7802;BME280;3945;48.952;9.506;2022-10-31T04:35:11;98389.06;;;10.30;94.17
7802;BME280;3945;48.952;9.506;2022-10-31T04:37:38;98387.88;;;10.26;94.27
7802;BME280;3945;48.952;9.506;2022-10-31T04:40:04;98387.28;;;10.24;94.57
7802;BME280;3945;48.952;9.506;2022-10-31T04:42:31;98393.06;;;10.21;94.39
7802;BME280;3945;48.952;9.506;2022-10-31T04:44:57;98388.56;;;10.21;94.42
7802;BME280;3945;48.952;9.506;2022-10-31T04:47:25;98385.31;;;10.19;93.97
7802;BME280;3945;48.952;9.506;2022-10-31T04:49:51;98377.75;;;10.16;94.12
7802;BME280;3945;48.952;9.506;2022-10-31T04:52:18;98375.78;;;10.11;93.91
7802;BME280;3945;48.952;9.506;2022-10-31T04:54:44;98372.31;;;10.11;94.02
7802;BME280;3945;48.952;9.506;2022-10-31T04:57:10;98377.03;;;10.09;94.09
7802;BME280;3945;48.952;9.506;2022-10-31T04:59:37;98379.94;;;10.07;94.30
7802;BME280;3945;48.952;9.506;2022-10-31T05:02:03;98372.78;;;10.08;94.23
7802;BME280;3945;48.952;9.506;2022-10-31T05:04:31;98366.88;;;10.06;94.13
7802;BME280;3945;48.952;9.506;2022-10-31T05:06:57;98358.28;;;10.04;94.48
7802;BME280;3945;48.952;9.506;2022-10-31T05:09:24;98363.00;;;10.02;95.75
7802;BME280;3945;48.952;9.506;2022-10-31T05:11:50;98351.56;;;10.01;95.78
7802;BME280;3945;48.952;9.506;2022-10-31T05:14:16;98342.81;;;10.01;95.99
7802;BME280;3945;48.952;9.506;2022-10-31T05:16:43;98344.66;;;10.00;96.19
7802;BME280;3945;48.952;9.506;2022-10-31T05:19:09;98346.50;;;10.00;96.09
7802;BME280;3945;48.952;9.506;2022-10-31T05:21:37;98337.72;;;9.99;95.95
7802;BME280;3945;48.952;9.506;2022-10-31T05:24:03;98343.59;;;10.01;96.33
7802;BME280;3945;48.952;9.506;2022-10-31T05:26:30;98340.16;;;10.01;96.33
7802;BME280;3945;48.952;9.506;2022-10-31T05:28:56;98332.19;;;10.01;96.17
7802;BME280;3945;48.952;9.506;2022-10-31T05:31:22;98336.44;;;10.02;96.25
7802;BME280;3945;48.952;9.506;2022-10-31T05:33:49;98329.28;;;10.02;96.03
7802;BME280;3945;48.952;9.506;2022-10-31T05:36:15;98334.84;;;10.01;95.84
7802;BME280;3945;48.952;9.506;2022-10-31T05:38:43;98336.91;;;9.99;95.72
7802;BME280;3945;48.952;9.506;2022-10-31T05:41:09;98336.69;;;10.00;95.92
7802;BME280;3945;48.952;9.506;2022-10-31T05:43:36;98339.34;;;10.00;96.14
7802;BME280;3945;48.952;9.506;2022-10-31T05:46:02;98337.50;;;10.01;96.21
7802;BME280;3945;48.952;9.506;2022-10-31T05:48:29;98335.06;;;9.99;96.42
7802;BME280;3945;48.952;9.506;2022-10-31T05:50:55;98337.72;;;9.99;95.93
7802;BME280;3945;48.952;9.506;2022-10-31T05:53:21;98337.72;;;9.99;96.44
7802;BME280;3945;48.952;9.506;2022-10-31T05:55:49;98335.28;;;9.98;96.40
7802;BME280;3945;48.952;9.506;2022-10-31T05:58:16;98339.56;;;9.99;95.88
7802;BME280;3945;48.952;9.506;2022-10-31T06:00:42;98353.28;;;9.96;95.51
7802;BME280;3945;48.952;9.506;2022-10-31T06:03:09;98350.28;;;9.92;95.78
7802;BME280;3945;48.952;9.506;2022-10-31T06:05:35;98345.19;;;9.91;95.27
7802;BME280;3945;48.952;9.506;2022-10-31T06:08:02;98347.47;;;9.87;95.03
7802;BME280;3945;48.952;9.506;2022-10-31T06:10:28;98353.47;;;9.83;95.18
7802;BME280;3945;48.952;9.506;2022-10-31T06:12:56;98353.69;;;9.81;94.86
7802;BME280;3945;48.952;9.506;2022-10-31T06:15:22;98344.19;;;9.73;94.67
7802;BME280;3945;48.952;9.506;2022-10-31T06:17:56;98347.97;;;9.66;94.46
7802;BME280;3945;48.952;9.506;2022-10-31T06:20:23;98348.88;;;9.60;94.08
7802;BME280;3945;48.952;9.506;2022-10-31T06:22:49;98351.19;;;9.56;94.29
7802;BME280;3945;48.952;9.506;2022-10-31T06:25:15;98346.44;;;9.58;94.79
7802;BME280;3945;48.952;9.506;2022-10-31T06:27:42;98347.25;;;9.59;94.68
7802;BME280;3945;48.952;9.506;2022-10-31T06:30:10;98339.50;;;9.57;94.48
7802;BME280;3945;48.952;9.506;2022-10-31T06:32:37;98346.81;;;9.62;94.62
7802;BME280;3945;48.952;9.506;2022-10-31T06:35:03;98341.50;;;9.62;94.85
7802;BME280;3945;48.952;9.506;2022-10-31T06:37:30;98339.06;;;9.60;94.97
7802;BME280;3945;48.952;9.506;2022-10-31T06:39:56;98335.16;;;9.63;94.67
7802;BME280;3945;48.952;9.506;2022-10-31T06:42:22;98337.59;;;9.64;94.98
7802;BME280;3945;48.952;9.506;2022-10-31T06:44:49;98348.78;;;9.66;94.66
7802;BME280;3945;48.952;9.506;2022-10-31T06:47:16;98343.72;;;9.65;94.74
7802;BME280;3945;48.952;9.506;2022-10-31T06:49:43;98345.91;;;9.68;94.98
7802;BME280;3945;48.952;9.506;2022-10-31T06:52:09;98342.00;;;9.70;95.10
7802;BME280;3945;48.952;9.506;2022-10-31T06:54:35;98335.66;;;9.71;95.08
7802;BME280;3945;48.952;9.506;2022-10-31T06:57:02;98342.00;;;9.70;94.80
7802;BME280;3945;48.952;9.506;2022-10-31T06:59:29;98346.72;;;9.68;95.21
7802;BME280;3945;48.952;9.506;2022-10-31T07:01:55;98338.16;;;9.66;95.08
7802;BME280;3945;48.952;9.506;2022-10-31T07:04:24;98339.44;;;9.64;95.18
7802;BME280;3945;48.952;9.506;2022-10-31T07:06:51;98346.38;;;9.65;94.96
7802;BME280;3945;48.952;9.506;2022-10-31T07:09:17;98345.56;;;9.64;95.31
7802;BME280;3945;48.952;9.506;2022-10-31T07:11:44;98341.63;;;9.67;95.40
7802;BME280;3945;48.952;9.506;2022-10-31T07:14:10;98350.19;;;9.69;95.57
7802;BME280;3945;48.952;9.506;2022-10-31T07:16:36;98340.16;;;9.71;95.79
7802;BME280;3945;48.952;9.506;2022-10-31T07:19:03;98343.16;;;9.74;95.70
7802;BME280;3945;48.952;9.506;2022-10-31T07:21:30;98347.00;;;9.78;96.11
7802;BME280;3945;48.952;9.506;2022-10-31T07:23:57;98338.13;;;9.85;96.15
7802;BME280;3945;48.952;9.506;2022-10-31T07:26:23;98348.44;;;9.93;96.61
7802;BME280;3945;48.952;9.506;2022-10-31T07:28:51;98345.22;;;10.02;97.09
7802;BME280;3945;48.952;9.506;2022-10-31T07:31:17;98349.78;;;10.13;97.43
7802;BME280;3945;48.952;9.506;2022-10-31T07:33:43;98351.34;;;10.21;97.86
7802;BME280;3945;48.952;9.506;2022-10-31T07:36:10;98354.94;;;10.27;98.09
7802;BME280;3945;48.952;9.506;2022-10-31T07:38:37;98363.03;;;10.32;98.11
7802;BME280;3945;48.952;9.506;2022-10-31T07:41:04;98357.03;;;10.36;98.19
7802;BME280;3945;48.952;9.506;2022-10-31T07:43:30;98365.47;;;10.45;98.25
7802;BME280;3945;48.952;9.506;2022-10-31T07:45:57;98365.97;;;10.53;98.27
7802;BME280;3945;48.952;9.506;2022-10-31T07:48:23;98370.72;;;10.63;98.52
7802;BME280;3945;48.952;9.506;2022-10-31T07:50:49;98369.09;;;10.74;98.93
7802;BME280;3945;48.952;9.506;2022-10-31T07:53:16;98376.19;;;10.80;98.85
7802;BME280;3945;48.952;9.506;2022-10-31T07:55:43;98367.81;;;10.88;99.04
7802;BME280;3945;48.952;9.506;2022-10-31T07:58:10;98362.97;;;10.96;99.03
7802;BME280;3945;48.952;9.506;2022-10-31T08:00:37;98363.44;;;11.05;99.42
7802;BME280;3945;48.952;9.506;2022-10-31T08:03:04;98355.09;;;11.13;99.66
7802;BME280;3945;48.952;9.506;2022-10-31T08:05:31;98352.88;;;11.22;99.85
7802;BME280;3945;48.952;9.506;2022-10-31T08:07:58;98357.84;;;11.30;99.89
7802;BME280;3945;48.952;9.506;2022-10-31T08:10:24;98354.56;;;11.40;99.96
7802;BME280;3945;48.952;9.506;2022-10-31T08:12:56;98349.38;;;11.45;99.41
7802;BME280;3945;48.952;9.506;2022-10-31T08:15:23;98349.22;;;11.51;99.68
7802;BME280;3945;48.952;9.506;2022-10-31T08:17:49;98348.38;;;11.62;99.43
7802;BME280;3945;48.952;9.506;2022-10-31T08:20:16;98349.16;;;11.74;99.65
7802;BME280;3945;48.952;9.506;2022-10-31T08:22:42;98344.03;;;11.85;99.15
7802;BME280;3945;48.952;9.506;2022-10-31T08:25:08;98343.44;;;11.94;99.08
7802;BME280;3945;48.952;9.506;2022-10-31T08:27:35;98343.59;;;12.04;99.05
7802;BME280;3945;48.952;9.506;2022-10-31T08:30:03;98345.28;;;12.10;99.36
7802;BME280;3945;48.952;9.506;2022-10-31T08:32:29;98344.44;;;12.22;99.42
7802;BME280;3945;48.952;9.506;2022-10-31T08:34:56;98341.97;;;12.32;98.95
7802;BME280;3945;48.952;9.506;2022-10-31T08:37:22;98340.72;;;12.39;99.31
7802;BME280;3945;48.952;9.506;2022-10-31T08:39:49;98348.66;;;12.51;98.84
7802;BME280;3945;48.952;9.506;2022-10-31T08:42:16;98340.97;;;12.55;98.57
7802;BME280;3945;48.952;9.506;2022-10-31T08:44:42;98337.59;;;12.59;98.07
7802;BME280;3945;48.952;9.506;2022-10-31T08:47:10;98338.00;;;12.68;97.52
7802;BME280;3945;48.952;9.506;2022-10-31T08:49:36;98333.53;;;12.73;97.42
7802;BME280;3945;48.952;9.506;2022-10-31T08:52:02;98329.38;;;12.82;97.62
7802;BME280;3945;48.952;9.506;2022-10-31T08:54:29;98335.69;;;12.93;97.51
7802;BME280;3945;48.952;9.506;2022-10-31T08:56:55;98330.22;;;13.05;98.04
7802;BME280;3945;48.952;9.506;2022-10-31T08:59:22;98330.06;;;13.11;98.07
7802;BME280;3945;48.952;9.506;2022-10-31T09:01:48;98329.66;;;13.19;98.29
7802;BME280;3945;48.952;9.506;2022-10-31T09:04:16;98328.41;;;13.27;98.21
7802;BME280;3945;48.952;9.506;2022-10-31T09:06:42;98333.66;;;13.39;97.87
7802;BME280;3945;48.952;9.506;2022-10-31T09:09:09;98328.44;;;13.49;98.02
7802;BME280;3945;48.952;9.506;2022-10-31T09:11:35;98322.16;;;13.60;97.96
7802;BME280;3945;48.952;9.506;2022-10-31T09:14:01;98321.44;;;13.69;97.66
7802;BME280;3945;48.952;9.506;2022-10-31T09:16:28;98315.72;;;13.83;98.03
7802;BME280;3945;48.952;9.506;2022-10-31T09:18:54;98313.69;;;13.95;98.02
7802;BME280;3945;48.952;9.506;2022-10-31T09:21:22;98313.53;;;14.06;97.91
7802;BME280;3945;48.952;9.506;2022-10-31T09:23:48;98302.69;;;14.18;97.40
7802;BME280;3945;48.952;9.506;2022-10-31T09:26:14;98300.88;;;14.29;96.77
7802;BME280;3945;48.952;9.506;2022-10-31T09:28:41;98301.03;;;14.44;96.47
7802;BME280;3945;48.952;9.506;2022-10-31T09:31:09;98301.72;;;14.61;95.34
7802;BME280;3945;48.952;9.506;2022-10-31T09:33:36;98298.59;;;14.74;94.86
7802;BME280;3945;48.952;9.506;2022-10-31T09:36:02;98294.38;;;14.89;94.79
7802;BME280;3945;48.952;9.506;2022-10-31T09:38:30;98297.69;;;15.06;94.75
7802;BME280;3945;48.952;9.506;2022-10-31T09:41:01;98299.63;;;15.20;94.68
7802;BME280;3945;48.952;9.506;2022-10-31T09:43:33;98297.03;;;15.36;94.05
7802;BME280;3945;48.952;9.506;2022-10-31T09:46:04;98290.91;;;15.45;93.64
7802;BME280;3945;48.952;9.506;2022-10-31T09:48:39;98294.19;;;15.57;92.84
7802;BME280;3945;48.952;9.506;2022-10-31T09:51:08;98289.91;;;15.67;91.17
7802;BME280;3945;48.952;9.506;2022-10-31T09:53:38;98284.84;;;15.75;90.80
7802;BME280;3945;48.952;9.506;2022-10-31T09:56:07;98280.59;;;15.84;90.88
7802;BME280;3945;48.952;9.506;2022-10-31T09:58:40;98287.31;;;15.97;91.35
7802;BME280;3945;48.952;9.506;2022-10-31T10:01:09;98281.13;;;16.07;90.75
7802;BME280;3945;48.952;9.506;2022-10-31T10:03:41;98280.31;;;16.21;90.20
7802;BME280;3945;48.952;9.506;2022-10-31T10:06:11;98281.16;;;16.32;89.37
7802;BME280;3945;48.952;9.506;2022-10-31T10:08:41;98284.63;;;16.42;88.59
7802;BME280;3945;48.952;9.506;2022-10-31T10:11:20;98289.75;;;16.54;87.43
7802;BME280;3945;48.952;9.506;2022-10-31T10:13:56;98282.22;;;16.66;86.53
7802;BME280;3945;48.952;9.506;2022-10-31T10:16:27;98276.84;;;16.76;86.21
7802;BME280;3945;48.952;9.506;2022-10-31T10:19:02;98275.22;;;16.86;86.09
7802;BME280;3945;48.952;9.506;2022-10-31T10:21:35;98271.69;;;16.90;85.34
7802;BME280;3945;48.952;9.506;2022-10-31T10:24:11;98279.47;;;16.97;85.96
7802;BME280;3945;48.952;9.506;2022-10-31T10:26:40;98271.94;;;17.04;86.10
7802;BME280;3945;48.952;9.506;2022-10-31T10:29:14;98271.09;;;17.13;85.66
7802;BME280;3945;48.952;9.506;2022-10-31T10:31:44;98270.53;;;17.22;85.26
7802;BME280;3945;48.952;9.506;2022-10-31T10:34:13;98270.47;;;17.32;85.14
7802;BME280;3945;48.952;9.506;2022-10-31T10:36:45;98267.50;;;17.38;84.66
7802;BME280;3945;48.952;9.506;2022-10-31T10:39:15;98269.88;;;17.45;83.92
7802;BME280;3945;48.952;9.506;2022-10-31T10:41:44;98268.00;;;17.50;83.56
7802;BME280;3945;48.952;9.506;2022-10-31T10:44:27;98267.91;;;17.61;83.21
7802;BME280;3945;48.952;9.506;2022-10-31T10:47:10;98253.09;;;17.68;83.00
7802;BME280;3945;48.952;9.506;2022-10-31T10:49:55;98270.03;;;17.74;83.35
7802;BME280;3945;48.952;9.506;2022-10-31T10:52:24;98257.31;;;17.79;83.07
7802;BME280;3945;48.952;9.506;2022-10-31T10:54:58;98244.09;;;17.88;82.85
7802;BME280;3945;48.952;9.506;2022-10-31T10:57:29;98254.53;;;17.94;82.36
7802;BME280;3945;48.952;9.506;2022-10-31T10:59:58;98235.38;;;18.01;82.56
7802;BME280;3945;48.952;9.506;2022-10-31T11:02:27;98236.97;;;18.07;81.96
7802;BME280;3945;48.952;9.506;2022-10-31T11:04:57;98232.06;;;18.14;81.01
7802;BME280;3945;48.952;9.506;2022-10-31T11:07:24;98222.84;;;18.20;79.99
7802;BME280;3945;48.952;9.506;2022-10-31T11:09:51;98227.91;;;18.27;77.94
7802;BME280;3945;48.952;9.506;2022-10-31T11:12:20;98219.53;;;18.28;77.76
7802;BME280;3945;48.952;9.506;2022-10-31T11:14:49;98209.50;;;18.34;78.04
7802;BME280;3945;48.952;9.506;2022-10-31T11:17:19;98209.44;;;18.39;77.35
7802;BME280;3945;48.952;9.506;2022-10-31T11:19:46;98204.81;;;18.45;77.06
7802;BME280;3945;48.952;9.506;2022-10-31T11:22:14;98201.84;;;18.46;77.52
7802;BME280;3945;48.952;9.506;2022-10-31T11:24:42;98204.53;;;18.46;78.23
7802;BME280;3945;48.952;9.506;2022-10-31T11:27:13;98197.78;;;18.49;77.53
7802;BME280;3945;48.952;9.506;2022-10-31T11:29:41;98205.06;;;18.48;76.17
7802;BME280;3945;48.952;9.506;2022-10-31T11:32:13;98201.81;;;18.51;76.28
7802;BME280;3945;48.952;9.506;2022-10-31T11:34:42;98205.28;;;18.57;77.63
7802;BME280;3945;48.952;9.506;2022-10-31T11:37:12;98202.81;;;18.60;76.62
7802;BME280;3945;48.952;9.506;2022-10-31T11:39:40;98190.66;;;18.63;76.64
7802;BME280;3945;48.952;9.506;2022-10-31T11:42:07;98188.75;;;18.63;76.82
7802;BME280;3945;48.952;9.506;2022-10-31T11:44:34;98183.59;;;18.67;76.71
7802;BME280;3945;48.952;9.506;2022-10-31T11:47:02;98179.25;;;18.71;77.05
7802;BME280;3945;48.952;9.506;2022-10-31T11:49:30;98167.31;;;18.77;78.20
7802;BME280;3945;48.952;9.506;2022-10-31T11:51:58;98163.44;;;18.83;77.65
7802;BME280;3945;48.952;9.506;2022-10-31T11:54:26;98154.47;;;18.88;76.59
7802;BME280;3945;48.952;9.506;2022-10-31T11:56:54;98148.44;;;18.96;76.76
7802;BME280;3945;48.952;9.506;2022-10-31T11:59:23;98153.28;;;18.99;75.98
7802;BME280;3945;48.952;9.506;2022-10-31T12:01:51;98145.91;;;19.04;75.41
7802;BME280;3945;48.952;9.506;2022-10-31T12:04:19;98139.34;;;19.10;75.85
7802;BME280;3945;48.952;9.506;2022-10-31T12:06:51;98140.88;;;19.17;76.38
7802;BME280;3945;48.952;9.506;2022-10-31T12:09:19;98127.63;;;19.20;76.63
7802;BME280;3945;48.952;9.506;2022-10-31T12:11:51;98127.56;;;19.25;74.19
7802;BME280;3945;48.952;9.506;2022-10-31T12:14:23;98128.34;;;19.26;76.10
7802;BME280;3945;48.952;9.506;2022-10-31T12:16:55;98124.81;;;19.30;76.38
7802;BME280;3945;48.952;9.506;2022-10-31T12:19:27;98126.09;;;19.33;75.38
7802;BME280;3945;48.952;9.506;2022-10-31T12:22:02;98122.53;;;19.37;75.78
7802;BME280;3945;48.952;9.506;2022-10-31T12:24:35;98122.44;;;19.42;75.61
7802;BME280;3945;48.952;9.506;2022-10-31T12:27:14;98123.72;;;19.50;75.71
7802;BME280;3945;48.952;9.506;2022-10-31T12:29:49;98115.00;;;19.53;74.66
7802;BME280;3945;48.952;9.506;2022-10-31T12:32:23;98121.22;;;19.54;75.42
7802;BME280;3945;48.952;9.506;2022-10-31T12:34:59;98116.34;;;19.56;75.84
7802;BME280;3945;48.952;9.506;2022-10-31T12:37:33;98116.84;;;19.58;76.78
7802;BME280;3945;48.952;9.506;2022-10-31T12:40:07;98114.16;;;19.58;77.04
7802;BME280;3945;48.952;9.506;2022-10-31T12:42:45;98108.75;;;19.58;77.01
7802;BME280;3945;48.952;9.506;2022-10-31T12:45:30;98108.75;;;19.58;77.58
7802;BME280;3945;48.952;9.506;2022-10-31T12:48:19;98100.66;;;19.58;76.34
7802;BME280;3945;48.952;9.506;2022-10-31T12:50:52;98093.66;;;19.57;77.08
7802;BME280;3945;48.952;9.506;2022-10-31T12:53:26;98085.63;;;19.52;75.54
7802;BME280;3945;48.952;9.506;2022-10-31T12:56:00;98073.81;;;19.47;76.17
7802;BME280;3945;48.952;9.506;2022-10-31T12:58:31;98072.44;;;19.50;76.88
7802;BME280;3945;48.952;9.506;2022-10-31T13:01:02;98067.53;;;19.52;76.77
7802;BME280;3945;48.952;9.506;2022-10-31T13:03:31;98065.63;;;19.53;76.56
7802;BME280;3945;48.952;9.506;2022-10-31T13:06:02;98061.53;;;19.55;76.99
7802;BME280;3945;48.952;9.506;2022-10-31T13:08:30;98068.75;;;19.60;77.58
7802;BME280;3945;48.952;9.506;2022-10-31T13:11:02;98066.25;;;19.63;77.81
7802;BME280;3945;48.952;9.506;2022-10-31T13:13:32;98062.25;;;19.61;77.74
7802;BME280;3945;48.952;9.506;2022-10-31T13:16:03;98057.16;;;19.59;77.68
7802;BME280;3945;48.952;9.506;2022-10-31T13:18:31;98059.88;;;19.59;77.39
7802;BME280;3945;48.952;9.506;2022-10-31T13:21:05;98050.97;;;19.59;77.03
7802;BME280;3945;48.952;9.506;2022-10-31T13:23:34;98040.66;;;19.61;77.59
7802;BME280;3945;48.952;9.506;2022-10-31T13:26:03;98032.53;;;19.61;77.40
7802;BME280;3945;48.952;9.506;2022-10-31T13:28:34;98032.88;;;19.59;77.49
7802;BME280;3945;48.952;9.506;2022-10-31T13:31:02;98030.16;;;19.59;77.78
7802;BME280;3945;48.952;9.506;2022-10-31T13:33:29;98028.84;;;19.57;77.81